Flight Track Log - Related Links

Times and Time Zones

All times are in EDT time to prevent confusion due to time zone crossing. See the SKW5631 flight status page for this flight to view local times or setup timezone preferences in your user account.

Time Position Orientation Groundspeed Altitude Reporting Facility
EDT Latitude Longitude Course Direction KTS MPH feet Rate Location/Type
Thu 06:43:40 PM 37.6500 -122.3333 90° East 159 183 2,600  Level Northern Cal TRACON
Thu 06:44:40 PM 37.6833 -122.2833 50° Northeast 192 221 3,900 1,273 Climbing Northern Cal TRACON
Thu 06:45:19 PM 37.7033 -122.2522 51° Northeast 193 222 4,700 1,500 Climbing Oakland Center
Thu 06:46:20 PM 37.7286 -122.1939 61° Northeast 202 232 6,400 1,525 Climbing Oakland Center
Thu 06:47:21 PM 37.7425 -122.1247 76° East 203 234 7,800 1,672 Climbing Oakland Center
Thu 06:48:22 PM 37.7581 -122.0372 77° East 211 243 9,800 1,805 Climbing Oakland Center
Thu 06:49:00 PM 37.6167 -122.3671 90° East  Level FlightAware Approximate
Thu 06:49:24 PM 37.7722 -121.9661 76° East 211 243 11,500  Level Oakland Center
Thu 06:50:25 PM 37.7836 -121.8981 78° East 203 234 13,000 1,328 Climbing Oakland Center
Thu 06:51:26 PM 37.7964 -121.8297 77° East 200 230 14,200 1,033 Climbing Oakland Center
Thu 06:52:27 PM 37.8089 -121.7597 77° East 203 234 15,100 976 Climbing Oakland Center
Thu 06:53:29 PM 37.7958 -121.6878 103° East 223 257 16,200 1,024 Climbing Oakland Center
Thu 06:54:30 PM 37.7628 -121.6186 121° Southeast 229 264 17,200 885 Climbing Oakland Center
Thu 06:55:31 PM 37.7311 -121.5486 120° Southeast 229 264 18,000 927 Climbing Oakland Center
Thu 06:56:33 PM 37.6919 -121.4656 121° Southeast 239 275 19,100 976 Climbing Oakland Center
Thu 06:57:34 PM 37.6578 -121.3928 121° Southeast 241 277 20,000 885 Climbing Oakland Center
Thu 06:58:35 PM 37.6231 -121.3217 122° Southeast 240 276 20,900 829 Climbing Oakland Center
Thu 06:59:37 PM 37.5864 -121.2439 121° Southeast 242 278 21,700 780 Climbing Oakland Center
Thu 07:00:38 PM 37.5511 -121.1686 121° Southeast 247 284 22,500 689 Climbing Oakland Center
Thu 07:01:39 PM 37.5164 -121.1017 123° Southeast 246 283 23,100 293 Climbing Oakland Center
Thu 07:02:41 PM 37.4589 -121.0389 139° Southeast 274 315 23,100  Level Oakland Center
Thu 07:03:42 PM 37.3833 -120.9647 142° Southeast 286 329 23,100  Level Oakland Center
Thu 07:04:43 PM 37.3219 -120.9014 141° Southeast 285 328 23,100  Level Oakland Center
Thu 07:05:45 PM 37.2608 -120.8392 141° Southeast 283 326 23,100  Level Oakland Center
Thu 07:06:46 PM 37.1969 -120.7783 143° Southeast 295 339 23,100  Level Oakland Center
Thu 07:07:47 PM 37.1361 -120.7136 140° Southeast 298 343 23,100  Level Oakland Center
Thu 07:08:49 PM 37.0725 -120.6542 143° Southeast 278 320 23,100  Level Oakland Center
Thu 07:09:50 PM 37.0114 -120.5919 141° Southeast 289 333 23,100  Level Oakland Center
Thu 07:10:51 PM 36.9503 -120.5297 141° Southeast 281 323 23,100  Level Oakland Center
Thu 07:11:53 PM 36.8886 -120.4664 141° Southeast 285 328 23,100  Level Oakland Center
Thu 07:12:54 PM 36.8150 -120.3956 142° Southeast 285 328 23,100  Level Oakland Center
Thu 07:13:56 PM 36.7533 -120.3331 141° Southeast 286 329 23,100  Level Oakland Center
Thu 07:14:57 PM 36.6914 -120.2719 142° Southeast 285 328 23,100  Level Oakland Center
Thu 07:15:58 PM 36.6289 -120.2106 142° Southeast 287 330 23,100 -390 Level Oakland Center
Thu 07:17:00 PM 36.5667 -120.1464 140° Southeast 296 341 22,300 -829 Descending Oakland Center
Thu 07:18:01 PM 36.4972 -120.0778 142° Southeast 316 364 21,400 -780 Descending Oakland Center
Thu 07:19:03 PM 36.4269 -120.0075 141° Southeast 323 372 20,700 -732 Descending Oakland Center
Thu 07:20:04 PM 36.3567 -119.9375 141° Southeast 324 373 19,900 -878 Descending Oakland Center
Thu 07:21:06 PM 36.2700 -119.8531 142° Southeast 329 379 18,900 -878 Descending Oakland Center
Thu 07:22:07 PM 36.1997 -119.7844 142° Southeast 322 371 18,100 -1,024 Descending Oakland Center
Thu 07:23:09 PM 36.1281 -119.7136 141° Southeast 329 379 16,800 -1,317 Descending Oakland Center
Thu 07:24:10 PM 36.0544 -119.6428 142° Southeast 332 382 15,400 -1,366 Descending Oakland Center
Thu 07:25:12 PM 35.9875 -119.5792 142° Southeast 309 356 14,000 -1,317 Descending Oakland Center
Thu 07:26:13 PM 35.9272 -119.5231 143° Southeast 280 322 12,700 -1,268 Descending Oakland Center
Thu 07:27:15 PM 35.8669 -119.4647 142° Southeast 275 316 11,400 -1,220 Descending Oakland Center
Thu 07:28:16 PM 35.8111 -119.4094 141° Southeast 266 306 10,200 -1,220 Descending Oakland Center
Thu 07:29:18 PM 35.7597 -119.3500 137° Southeast 257 296 8,900 -1,355 Descending Oakland Center
Thu 07:30:20 PM 35.7008 -119.2742 134° Southeast 255 293 7,400 -1,268 Descending Oakland Center
Thu 07:31:21 PM 35.6531 -119.2133 134° Southeast 252 290 6,300 -1,131 Descending Oakland Center
Thu 07:32:22 PM 35.6069 -119.1533 133° Southeast 248 285 5,100 -1,116 Descending Oakland Center
Thu 07:32:47 PM 35.5889 -119.1297 133° Southeast 247 284 4,700 -690 Descending Los Angeles Center
Thu 07:33:49 PM 35.5461 -119.0744 134° Southeast 237 273 4,100 -339 Descending Los Angeles Center
Thu 07:34:51 PM 35.5028 -119.0172 133° Southeast 229 264 4,000 -97 Descending Los Angeles Center
Thu 07:37:00 PM 35.4333 -119.0500 151° Southeast  Level FlightAware Approximate

Login

Don't have an account? Register now (free) for customized features, flight alerts, and more!